KHDE/HDE METAR and TAF weather

Enter ICAO airport designator
Station Type Date Time Source
KHDE METAR 2021/05/11 17:15 UTC NOAA

KHDE 111715Z AUTO 03011KT 10SM CLR 14/00 A3027 RMK AO2 T01351001


Station Type Date Time Source
KHDE Decoded METAR 2021/05/11 17:15 UTC NOAA

Brewster Field Airport, NE, United States (KHDE) 40-27N 099-20W
May 11, 2021 - 01:15 PM EDT / 2021.05.11 1715 UTC
Wind: from the NNE (030 degrees) at 13 MPH (11 KT):0
Visibility: 10 mile(s):0
Sky conditions: clear
Temperature: 56.3 F (13.5 C)
Dew Point: 31.8 F (-0.1 C)
Relative Humidity: 39%
Pressure (altimeter): 30.27 in. Hg (1025 hPa)
ob: KHDE 111715Z AUTO 03011KT 10SM CLR 14/00 A3027 RMK AO2 T01351001
cycle: 17

Station Type Date Time Source
KHDE TAF UTC NOAA

Error!

Example: see airport list